Tumtum, Washington
Current Conditions -  °F | °C
As of 7:53 PM on Saturday 25 Oct 2014 (Local Time) from KDEW Reporting Station
Overcast Overcast  
Wind Chill: 53°   Ceiling: 7500
Heat Index: 53°   Visibility: 10mi
Dew Point: 47°   Wind: 5mph
Humidity: 80%   Direction: 190°S
Pressure: 29.53"   Gusts: NA
Location:  47.86°N, 117.68°W
Report Text: KDEW 260253Z AUTO 19004KT 10SM OVC075 12/08 A2953 RMK AO2 SLP000 60004 T01170083 55004
Loading
Personal Weather Stations






























Interactive Weather Map
Tropical Storm Tracking
New forecast layout! Learn more

10-Day Weather Forecast

Advertisements
Track Severe Weather on mobile